createdAt,value
2023-06-20T00:02:03.536Z,12.02
2023-06-20T00:04:30.653Z,11.32
2023-06-20T00:06:57.734Z,13.32
2023-06-20T00:09:24.572Z,12.00
2023-06-20T00:11:51.377Z,11.45
2023-06-20T00:14:18.223Z,12.38
2023-06-20T00:16:45.011Z,11.60
2023-06-20T00:19:12.154Z,11.18
2023-06-20T00:21:41.218Z,11.52
2023-06-20T00:24:12.032Z,11.27
2023-06-20T00:26:39.316Z,11.20
2023-06-20T00:29:06.322Z,11.45
2023-06-20T00:31:33.378Z,11.35
2023-06-20T00:34:00.602Z,11.48
2023-06-20T00:36:27.631Z,11.68
2023-06-20T00:38:55.089Z,10.13
2023-06-20T00:41:23.193Z,12.20
2023-06-20T00:43:50.321Z,11.30
2023-06-20T00:46:24.477Z,11.85
2023-06-20T00:48:51.641Z,10.98
2023-06-20T00:51:19.139Z,11.30
2023-06-20T00:53:47.183Z,10.60
2023-06-20T00:56:14.933Z,10.88
2023-06-20T00:58:41.792Z,11.07
2023-06-20T01:01:08.724Z,11.38
2023-06-20T01:03:39.099Z,11.05
2023-06-20T01:06:13.457Z,11.23
2023-06-20T01:08:55.758Z,11.95
2023-06-20T01:11:28.919Z,11.65
2023-06-20T01:13:58.851Z,11.32
2023-06-20T01:16:34.734Z,11.43
2023-06-20T01:19:33.967Z,11.13
2023-06-20T01:22:08.551Z,11.80
2023-06-20T01:24:47.875Z,11.38
2023-06-20T01:27:29.210Z,11.50
2023-06-20T01:30:09.582Z,11.27
2023-06-20T01:32:45.867Z,10.93
2023-06-20T01:35:16.518Z,10.95
2023-06-20T01:37:44.667Z,12.23
2023-06-20T01:40:14.216Z,13.13
2023-06-20T01:42:42.254Z,16.38
2023-06-20T01:45:11.697Z,15.75
2023-06-20T01:47:41.050Z,16.25
2023-06-20T01:50:09.810Z,16.83
2023-06-20T01:52:37.942Z,17.20
2023-06-20T01:55:07.606Z,17.70
2023-06-20T01:57:36.352Z,18.08
2023-06-20T02:00:09.706Z,17.90
2023-06-20T02:02:37.608Z,17.65
2023-06-20T02:05:06.936Z,16.98
2023-06-20T02:07:36.148Z,15.88
2023-06-20T02:10:04.451Z,15.93
2023-06-20T02:12:33.465Z,14.60
2023-06-20T02:15:00.497Z,14.20
2023-06-20T02:17:29.132Z,14.63
2023-06-20T02:19:56.071Z,13.20
2023-06-20T02:22:26.166Z,13.30
2023-06-20T02:24:58.258Z,13.50
2023-06-20T02:27:27.054Z,13.00
2023-06-20T02:29:57.257Z,13.73
2023-06-20T02:32:26.352Z,12.57
2023-06-20T02:34:55.853Z,12.70
2023-06-20T02:37:24.297Z,12.57
2023-06-20T02:39:51.680Z,13.65
2023-06-20T02:42:18.983Z,12.35
2023-06-20T02:44:46.051Z,12.45
2023-06-20T02:47:29.809Z,13.30
2023-06-20T02:50:00.320Z,13.45
2023-06-20T02:52:39.973Z,12.88
2023-06-20T02:55:18.922Z,13.00
2023-06-20T02:57:51.696Z,13.25
2023-06-20T03:00:20.024Z,12.68
2023-06-20T03:03:09.229Z,13.68
2023-06-20T03:05:39.900Z,11.88
2023-06-20T03:08:08.953Z,12.88
2023-06-20T03:10:36.928Z,13.35
2023-06-20T03:13:05.222Z,12.95
2023-06-20T03:15:32.454Z,12.88
2023-06-20T03:18:02.391Z,13.32
2023-06-20T03:20:29.892Z,12.35
2023-06-20T03:22:56.987Z,12.15
2023-06-20T03:25:24.292Z,12.93
2023-06-20T03:27:51.505Z,11.65
2023-06-20T03:30:18.854Z,13.15
2023-06-20T03:32:45.772Z,12.80
2023-06-20T03:35:12.882Z,12.27
2023-06-20T03:37:39.703Z,11.93
2023-06-20T03:40:07.285Z,11.60
2023-06-20T03:42:34.295Z,12.40
2023-06-20T03:45:01.167Z,11.75
2023-06-20T03:47:28.317Z,11.82
2023-06-20T03:49:55.169Z,11.93
2023-06-20T03:52:22.028Z,11.93
2023-06-20T03:54:48.863Z,11.95
2023-06-20T03:57:15.740Z,12.10
2023-06-20T03:59:42.616Z,11.90
2023-06-20T04:02:09.666Z,12.60
2023-06-20T04:04:36.600Z,11.93
2023-06-20T04:07:03.884Z,11.48
2023-06-20T04:09:30.964Z,12.38
2023-06-20T04:11:57.984Z,11.20
2023-06-20T04:14:24.809Z,11.88
2023-06-20T04:16:52.156Z,12.00
2023-06-20T04:19:20.026Z,12.57
2023-06-20T04:21:46.941Z,11.80
2023-06-20T04:24:15.888Z,11.48
2023-06-20T04:26:43.074Z,11.85
2023-06-20T04:29:09.870Z,11.70
2023-06-20T04:31:36.718Z,11.13
2023-06-20T04:34:03.967Z,10.48
2023-06-20T04:36:35.349Z,11.50
2023-06-20T04:39:04.812Z,10.68
2023-06-20T04:41:31.796Z,10.35
2023-06-20T04:44:01.788Z,11.40
2023-06-20T04:46:28.846Z,11.18
2023-06-20T04:48:55.674Z,10.82
2023-06-20T04:51:24.009Z,11.43
2023-06-20T04:53:53.970Z,11.13
2023-06-20T04:56:21.312Z,10.55
2023-06-20T04:58:48.848Z,11.88
2023-06-20T05:01:16.344Z,12.02
2023-06-20T05:03:45.513Z,11.60
2023-06-20T05:06:18.344Z,11.82
2023-06-20T05:08:46.454Z,11.38
2023-06-20T05:11:13.309Z,11.10
2023-06-20T05:13:40.213Z,11.15
2023-06-20T05:16:07.249Z,10.98
2023-06-20T05:18:35.911Z,12.35
2023-06-20T05:21:03.147Z,12.55
2023-06-20T05:23:30.299Z,11.82
2023-06-20T05:25:57.371Z,11.02
2023-06-20T05:28:24.423Z,12.52
2023-06-20T05:30:51.276Z,10.93
2023-06-20T05:33:18.173Z,11.43
2023-06-20T05:35:47.221Z,11.38
2023-06-20T05:38:14.408Z,12.00
2023-06-20T05:40:41.440Z,12.75
2023-06-20T05:43:08.260Z,12.20
2023-06-20T05:45:35.152Z,11.85
2023-06-20T05:48:02.199Z,12.13
2023-06-20T05:50:32.034Z,11.48
2023-06-20T05:52:59.066Z,11.63
2023-06-20T05:55:26.181Z,11.18
2023-06-20T05:57:53.069Z,11.45
2023-06-20T06:00:20.416Z,10.90
2023-06-20T06:02:47.456Z,11.50
2023-06-20T06:05:14.484Z,11.27
2023-06-20T06:07:41.407Z,11.73
2023-06-20T06:10:09.392Z,10.65
2023-06-20T06:12:37.240Z,12.40
2023-06-20T06:15:06.002Z,10.13
2023-06-20T06:17:33.294Z,11.05
2023-06-20T06:20:00.686Z,10.02
2023-06-20T06:22:27.776Z,10.82
2023-06-20T06:24:54.743Z,11.50
2023-06-20T06:27:21.824Z,11.15
2023-06-20T06:29:48.861Z,10.93
2023-06-20T06:32:21.326Z,11.05
2023-06-20T06:34:50.132Z,11.63
2023-06-20T06:37:17.079Z,11.55
2023-06-20T06:39:44.968Z,9.98
2023-06-20T06:42:11.951Z,11.05
2023-06-20T06:44:39.412Z,10.52
2023-06-20T06:47:06.454Z,10.32
2023-06-20T06:49:33.233Z,9.95
2023-06-20T06:52:00.505Z,10.05
2023-06-20T06:54:27.488Z,9.85
2023-06-20T06:56:54.381Z,10.73
2023-06-20T06:59:21.467Z,10.88
2023-06-20T07:01:48.315Z,9.98
2023-06-20T07:04:18.499Z,9.88
2023-06-20T07:06:45.988Z,9.52
2023-06-20T07:09:12.800Z,9.65
2023-06-20T07:11:39.655Z,9.02
2023-06-20T07:14:06.478Z,9.20
2023-06-20T07:16:33.438Z,8.93
2023-06-20T07:19:00.787Z,8.85
2023-06-20T07:21:28.448Z,9.05
2023-06-20T07:23:55.447Z,8.45
2023-06-20T07:26:22.381Z,8.68
2023-06-20T07:28:49.428Z,8.75
2023-06-20T07:31:20.606Z,8.80
2023-06-20T07:33:47.795Z,7.35
2023-06-20T07:36:15.189Z,8.13
2023-06-20T07:38:42.051Z,7.78
2023-06-20T07:41:08.951Z,7.70
2023-06-20T07:43:36.012Z,8.45
2023-06-20T07:46:02.995Z,8.57
2023-06-20T07:48:30.922Z,8.25
2023-06-20T07:50:58.520Z,8.23
2023-06-20T07:53:25.720Z,7.72
2023-06-20T07:55:55.341Z,8.40
2023-06-20T07:58:22.459Z,8.23
2023-06-20T08:00:49.339Z,8.00
2023-06-20T08:03:16.542Z,7.28
2023-06-20T08:05:43.584Z,8.68
2023-06-20T08:08:10.562Z,8.52
2023-06-20T08:10:37.430Z,8.65
2023-06-20T08:13:04.365Z,9.05
2023-06-20T08:15:31.410Z,8.35
2023-06-20T08:17:58.257Z,9.18
2023-06-20T08:20:25.336Z,9.32
2023-06-20T08:22:52.190Z,9.60
2023-06-20T08:25:18.957Z,7.88
2023-06-20T08:27:45.894Z,8.65
2023-06-20T08:30:13.207Z,9.40
2023-06-20T08:32:42.698Z,7.03
2023-06-20T08:35:10.961Z,8.35
2023-06-20T08:37:39.012Z,7.95
2023-06-20T08:40:10.859Z,8.27
2023-06-20T08:42:37.732Z,8.18
2023-06-20T08:45:06.167Z,9.23
2023-06-20T08:47:33.224Z,8.75
2023-06-20T08:50:00.196Z,9.05
2023-06-20T08:52:31.356Z,8.48
2023-06-20T08:55:00.400Z,8.07
2023-06-20T08:57:27.799Z,8.63
2023-06-20T08:59:56.442Z,8.32
2023-06-20T09:02:23.925Z,7.65
2023-06-20T09:05:04.415Z,7.38
2023-06-20T09:07:39.478Z,7.88
2023-06-20T09:10:07.302Z,7.20
2023-06-20T09:12:54.529Z,7.40
2023-06-20T09:15:26.728Z,7.40
2023-06-20T09:18:01.166Z,6.45
2023-06-20T09:20:32.288Z,6.47
2023-06-20T09:23:00.372Z,6.70
2023-06-20T09:25:29.328Z,6.45
2023-06-20T09:27:57.586Z,6.75
2023-06-20T09:30:30.077Z,7.28
2023-06-20T09:33:03.581Z,7.72
2023-06-20T09:35:31.778Z,8.02
2023-06-20T09:38:04.128Z,6.95
2023-06-20T09:40:30.956Z,6.97
2023-06-20T09:42:59.243Z,7.82
2023-06-20T09:45:26.597Z,7.03
2023-06-20T09:47:58.409Z,7.60
2023-06-20T09:50:27.343Z,7.75
2023-06-20T09:53:03.656Z,8.45
2023-06-20T09:55:37.962Z,6.78
2023-06-20T09:58:08.469Z,7.43
2023-06-20T10:00:37.378Z,8.10
2023-06-20T10:03:10.666Z,6.10
2023-06-20T10:05:38.109Z,6.53
2023-06-20T10:08:07.317Z,7.28
2023-06-20T10:10:34.242Z,6.97
2023-06-20T10:13:01.476Z,7.07
2023-06-20T10:15:28.508Z,5.90
2023-06-20T10:17:55.659Z,6.80
2023-06-20T10:20:38.421Z,7.20
2023-06-20T10:23:09.111Z,6.65
2023-06-20T10:25:49.100Z,6.80
2023-06-20T10:28:19.930Z,5.70
2023-06-20T10:30:54.454Z,6.07
2023-06-20T10:33:33.594Z,6.32
2023-06-20T10:36:04.372Z,6.88
2023-06-20T10:38:41.679Z,5.85
2023-06-20T10:41:11.456Z,7.53
2023-06-20T10:43:59.655Z,5.80
2023-06-20T10:46:38.617Z,6.03
2023-06-20T10:49:06.623Z,6.53
2023-06-20T10:51:50.959Z,6.28
2023-06-20T10:54:19.332Z,6.28
2023-06-20T10:56:47.774Z,5.60
2023-06-20T10:59:21.137Z,6.20
2023-06-20T11:01:48.385Z,6.47
2023-06-20T11:04:17.108Z,6.10
2023-06-20T11:06:44.666Z,6.38
2023-06-20T11:09:21.832Z,5.93
2023-06-20T11:11:49.648Z,5.00
2023-06-20T11:14:21.752Z,5.78
2023-06-20T11:16:50.440Z,5.30
2023-06-20T11:19:35.973Z,5.68
2023-06-20T11:22:04.526Z,4.78
2023-06-20T11:24:32.964Z,5.53
2023-06-20T11:27:16.296Z,5.20
2023-06-20T11:29:43.726Z,5.00
2023-06-20T11:32:12.254Z,5.20
2023-06-20T11:35:14.503Z,5.32
2023-06-20T11:37:43.914Z,5.13
2023-06-20T11:40:14.165Z,5.15
2023-06-20T11:42:41.300Z,5.30
2023-06-20T11:45:09.891Z,5.45
2023-06-20T11:47:36.840Z,5.25
2023-06-20T11:50:04.544Z,5.40
2023-06-20T11:52:34.497Z,5.55
2023-06-20T11:55:01.372Z,5.20
2023-06-20T11:57:30.226Z,5.28
2023-06-20T12:00:00.690Z,5.88
2023-06-20T12:02:28.337Z,4.95
2023-06-20T12:05:03.717Z,5.13
2023-06-20T12:07:47.972Z,5.03
2023-06-20T12:10:15.355Z,5.25
2023-06-20T12:12:45.274Z,4.95
2023-06-20T12:15:13.231Z,5.30
2023-06-20T12:17:39.988Z,4.95
2023-06-20T12:20:17.711Z,4.90
2023-06-20T12:22:55.487Z,4.55
2023-06-20T12:25:22.316Z,4.75
2023-06-20T12:27:49.149Z,5.07
2023-06-20T12:30:16.042Z,5.20
2023-06-20T12:32:43.021Z,5.65
2023-06-20T12:35:10.383Z,5.63
2023-06-20T12:37:37.286Z,4.68
2023-06-20T12:40:05.107Z,4.82
2023-06-20T12:42:32.078Z,5.50
2023-06-20T12:44:58.903Z,4.72
2023-06-20T12:47:26.293Z,5.05
2023-06-20T12:49:53.209Z,5.95
2023-06-20T12:52:20.059Z,5.03
2023-06-20T12:54:46.940Z,4.57
2023-06-20T12:57:13.725Z,4.65
2023-06-20T12:59:41.838Z,4.80
2023-06-20T13:02:09.766Z,4.95
2023-06-20T13:04:36.920Z,4.72
2023-06-20T13:07:04.545Z,5.07
2023-06-20T13:09:31.598Z,4.97
2023-06-20T13:11:58.471Z,5.10
2023-06-20T13:14:25.402Z,5.07
2023-06-20T13:16:52.245Z,5.25
2023-06-20T13:19:22.171Z,5.10
2023-06-20T13:21:50.694Z,5.78
2023-06-20T13:24:17.833Z,5.93
2023-06-20T13:26:44.964Z,5.68
2023-06-20T13:29:11.711Z,5.50
2023-06-20T13:31:38.729Z,5.45
2023-06-20T13:34:06.340Z,5.30
2023-06-20T13:36:33.736Z,5.60
2023-06-20T13:39:01.619Z,5.30
2023-06-20T13:41:28.541Z,5.22
2023-06-20T13:43:55.845Z,5.30
2023-06-20T13:46:23.256Z,4.53
2023-06-20T13:48:51.800Z,4.72
2023-06-20T13:51:19.122Z,5.28
2023-06-20T13:53:50.348Z,4.82
2023-06-20T13:56:17.676Z,4.88
2023-06-20T13:58:44.672Z,5.10
2023-06-20T14:01:11.618Z,5.05
2023-06-20T14:03:38.628Z,4.65
2023-06-20T14:06:05.596Z,5.05
2023-06-20T14:08:32.653Z,5.55
2023-06-20T14:10:59.460Z,5.18
2023-06-20T14:13:26.367Z,5.70
2023-06-20T14:15:53.332Z,5.93
2023-06-20T14:18:20.531Z,5.57
2023-06-20T14:20:47.837Z,5.40
2023-06-20T14:23:14.890Z,5.55
2023-06-20T14:25:41.779Z,5.95
2023-06-20T14:28:08.691Z,5.90
2023-06-20T14:30:36.025Z,5.43
2023-06-20T14:33:02.984Z,5.38
2023-06-20T14:35:30.099Z,5.80
2023-06-20T14:37:57.341Z,5.80
2023-06-20T14:40:24.510Z,5.95
2023-06-20T14:42:51.488Z,5.85
2023-06-20T14:45:18.351Z,5.63
2023-06-20T14:47:45.337Z,6.43
2023-06-20T14:50:12.319Z,5.70
2023-06-20T14:52:39.280Z,5.70
2023-06-20T14:55:06.608Z,5.22
2023-06-20T14:57:33.406Z,5.63
2023-06-20T15:00:00.158Z,6.25
2023-06-20T15:02:27.101Z,5.80
2023-06-20T15:04:53.922Z,5.38
2023-06-20T15:07:20.913Z,5.82
2023-06-20T15:09:47.708Z,5.80
2023-06-20T15:12:14.916Z,5.35
2023-06-20T15:14:41.832Z,6.35
2023-06-20T15:17:08.585Z,6.03
2023-06-20T15:19:35.533Z,5.40
2023-06-20T15:22:02.372Z,6.18
2023-06-20T15:24:33.524Z,6.05
2023-06-20T15:27:01.157Z,5.72
2023-06-20T15:29:28.149Z,5.25
2023-06-20T15:31:55.296Z,5.78
2023-06-20T15:34:22.401Z,5.53
2023-06-20T15:36:49.363Z,5.75
2023-06-20T15:39:17.375Z,5.28
2023-06-20T15:41:48.696Z,5.65
2023-06-20T15:44:16.309Z,5.93
2023-06-20T15:46:52.949Z,5.45
2023-06-20T15:49:22.579Z,5.63
2023-06-20T15:51:49.742Z,5.70
2023-06-20T15:54:16.758Z,5.45
2023-06-20T15:56:43.570Z,6.22
2023-06-20T15:59:10.417Z,6.32
2023-06-20T16:01:38.035Z,5.25
2023-06-20T16:04:05.311Z,6.05
2023-06-20T16:06:32.159Z,5.68
2023-06-20T16:09:00.081Z,5.35
2023-06-20T16:11:30.326Z,5.50
2023-06-20T16:13:58.114Z,5.63
2023-06-20T16:16:25.657Z,5.90
2023-06-20T16:18:53.336Z,6.00
2023-06-20T16:21:20.798Z,5.60
2023-06-20T16:23:49.818Z,5.97
2023-06-20T16:26:16.618Z,6.10
2023-06-20T16:28:43.514Z,7.57
2023-06-20T16:31:10.600Z,5.70
2023-06-20T16:33:49.449Z,5.38
2023-06-20T16:36:18.756Z,5.68
2023-06-20T16:38:45.758Z,5.68
2023-06-20T16:41:12.900Z,5.53
2023-06-20T16:43:40.877Z,5.07
2023-06-20T16:46:10.226Z,5.80
2023-06-20T16:48:38.397Z,5.95
2023-06-20T16:51:06.364Z,5.70
2023-06-20T16:53:35.028Z,5.88
2023-06-20T16:56:01.859Z,5.65
2023-06-20T16:58:28.855Z,5.30
2023-06-20T17:00:55.659Z,5.72
2023-06-20T17:03:22.481Z,5.18
2023-06-20T17:05:49.519Z,5.30
2023-06-20T17:08:17.274Z,5.50
2023-06-20T17:10:44.140Z,5.53
2023-06-20T17:13:11.093Z,5.50
2023-06-20T17:15:38.327Z,5.15
2023-06-20T17:18:05.957Z,5.63
2023-06-20T17:20:33.311Z,4.45
2023-06-20T17:23:01.326Z,5.32
2023-06-20T17:25:28.178Z,5.47
2023-06-20T17:27:55.182Z,5.10
2023-06-20T17:30:23.392Z,5.07
2023-06-20T17:32:50.460Z,5.47
2023-06-20T17:35:17.710Z,4.93
2023-06-20T17:37:44.561Z,5.32
2023-06-20T17:40:11.741Z,5.60
2023-06-20T17:42:38.540Z,4.78
2023-06-20T17:45:05.999Z,5.45
2023-06-20T17:47:33.421Z,5.70
2023-06-20T17:50:00.560Z,5.90
2023-06-20T17:52:29.185Z,6.03
2023-06-20T17:54:56.057Z,6.00
2023-06-20T17:57:23.686Z,5.95
2023-06-20T17:59:50.725Z,5.57
2023-06-20T18:02:18.360Z,6.38
2023-06-20T18:04:45.475Z,5.53
2023-06-20T18:07:12.449Z,5.43
2023-06-20T18:09:39.512Z,5.75
2023-06-20T18:12:07.312Z,6.43
2023-06-20T18:14:34.157Z,6.47
2023-06-20T18:17:00.960Z,6.50
2023-06-20T18:19:34.600Z,8.15
2023-06-20T18:22:09.435Z,6.25
2023-06-20T18:24:36.569Z,6.47
2023-06-20T18:27:04.805Z,7.28
2023-06-20T18:29:31.608Z,7.78
2023-06-20T18:31:58.441Z,7.45
2023-06-20T18:34:25.300Z,7.13
2023-06-20T18:36:52.125Z,7.07
2023-06-20T18:39:18.923Z,8.02
2023-06-20T18:41:45.859Z,9.00
2023-06-20T18:44:19.770Z,7.78
2023-06-20T18:46:47.203Z,8.73
2023-06-20T18:49:14.024Z,8.90
2023-06-20T18:51:40.883Z,7.68
2023-06-20T18:54:07.724Z,9.13
2023-06-20T18:56:34.588Z,9.25
2023-06-20T18:59:01.665Z,8.18
2023-06-20T19:01:29.759Z,9.82
2023-06-20T19:03:56.594Z,9.85
2023-06-20T19:06:23.944Z,9.43
2023-06-20T19:08:50.970Z,8.90
2023-06-20T19:11:17.824Z,8.82
2023-06-20T19:13:45.058Z,10.00
2023-06-20T19:16:12.518Z,11.95
2023-06-20T19:18:39.704Z,12.10
2023-06-20T19:21:06.633Z,9.23
2023-06-20T19:23:33.706Z,10.02
2023-06-20T19:26:00.659Z,10.25
2023-06-20T19:28:27.737Z,10.65
2023-06-20T19:30:57.411Z,10.77
2023-06-20T19:33:24.533Z,10.70
2023-06-20T19:35:51.423Z,10.95
2023-06-20T19:38:19.312Z,10.63
2023-06-20T19:40:46.259Z,10.73
2023-06-20T19:43:14.478Z,12.55
2023-06-20T19:45:42.971Z,12.05
2023-06-20T19:48:11.453Z,12.60
2023-06-20T19:50:38.683Z,12.50
2023-06-20T19:53:05.757Z,11.63
2023-06-20T19:55:32.956Z,10.90
2023-06-20T19:58:02.024Z,10.60
2023-06-20T20:00:29.314Z,11.13
2023-06-20T20:02:56.700Z,12.10
2023-06-20T20:05:23.640Z,10.48
2023-06-20T20:07:50.430Z,11.00
2023-06-20T20:10:17.381Z,12.00
2023-06-20T20:12:44.180Z,12.32
2023-06-20T20:15:11.719Z,12.48
2023-06-20T20:17:38.968Z,13.50
2023-06-20T20:20:06.615Z,12.15
2023-06-20T20:22:35.858Z,13.75
2023-06-20T20:25:11.887Z,13.43
2023-06-20T20:27:41.787Z,12.52
2023-06-20T20:30:09.934Z,11.75
2023-06-20T20:32:37.468Z,11.85
2023-06-20T20:35:04.744Z,12.75
2023-06-20T20:37:31.803Z,12.45
2023-06-20T20:39:58.806Z,13.05
2023-06-20T20:42:25.968Z,12.23
2023-06-20T20:44:53.015Z,13.13
2023-06-20T20:47:20.005Z,11.35
2023-06-20T20:49:46.886Z,11.63
2023-06-20T20:52:13.710Z,11.25
2023-06-20T20:54:40.571Z,12.52
2023-06-20T20:57:07.582Z,13.45
2023-06-20T20:59:34.532Z,13.02
2023-06-20T21:02:02.244Z,12.55
2023-06-20T21:04:29.384Z,12.13
2023-06-20T21:06:56.306Z,12.20
2023-06-20T21:09:23.178Z,11.63
2023-06-20T21:11:51.161Z,12.02
2023-06-20T21:14:21.110Z,11.65
2023-06-20T21:16:47.954Z,12.20
2023-06-20T21:19:14.906Z,12.30
2023-06-20T21:21:42.102Z,12.52
2023-06-20T21:24:09.438Z,11.45
2023-06-20T21:26:36.289Z,12.63
2023-06-20T21:29:03.621Z,12.40
2023-06-20T21:31:30.753Z,12.13
2023-06-20T21:34:01.350Z,12.57
2023-06-20T21:36:30.094Z,12.43
2023-06-20T21:38:58.059Z,13.55
2023-06-20T21:41:25.095Z,12.00
2023-06-20T21:43:52.172Z,12.25
2023-06-20T21:46:21.345Z,11.02
2023-06-20T21:48:48.383Z,12.27
2023-06-20T21:51:15.443Z,11.98
2023-06-20T21:53:42.341Z,12.18
2023-06-20T21:56:09.434Z,12.13
2023-06-20T21:58:36.771Z,12.15
2023-06-20T22:01:05.390Z,11.73
2023-06-20T22:03:32.623Z,11.05
2023-06-20T22:05:59.513Z,11.80
2023-06-20T22:08:27.784Z,12.25
2023-06-20T22:10:59.962Z,10.88
2023-06-20T22:13:28.769Z,11.10
2023-06-20T22:15:56.539Z,11.73
2023-06-20T22:18:23.713Z,12.43
2023-06-20T22:20:55.618Z,11.73
2023-06-20T22:23:24.094Z,11.73
2023-06-20T22:25:56.196Z,12.57
2023-06-20T22:28:23.209Z,12.98
2023-06-20T22:30:50.285Z,13.00
2023-06-20T22:33:19.010Z,12.35
2023-06-20T22:35:45.885Z,12.43
2023-06-20T22:38:15.988Z,13.55
2023-06-20T22:40:47.547Z,13.10
2023-06-20T22:43:15.359Z,13.30
2023-06-20T22:45:43.538Z,13.07
2023-06-20T22:48:10.784Z,12.00
2023-06-20T22:50:38.921Z,13.05
2023-06-20T22:53:06.021Z,13.07
2023-06-20T22:55:37.566Z,12.73
2023-06-20T22:58:05.753Z,12.82
2023-06-20T23:00:33.379Z,13.98
2023-06-20T23:03:00.360Z,13.40
2023-06-20T23:05:27.640Z,11.98
2023-06-20T23:07:57.131Z,14.00
2023-06-20T23:10:26.269Z,13.23
2023-06-20T23:12:53.629Z,14.05
2023-06-20T23:15:20.837Z,12.18
2023-06-20T23:17:48.155Z,13.45
2023-06-20T23:20:15.075Z,13.38
2023-06-20T23:22:43.598Z,13.32
2023-06-20T23:25:14.829Z,14.20
2023-06-20T23:27:42.000Z,13.50
2023-06-20T23:30:11.101Z,13.02
2023-06-20T23:32:41.863Z,14.00
2023-06-20T23:35:09.345Z,14.05
2023-06-20T23:37:40.571Z,13.65
2023-06-20T23:40:13.450Z,13.88
2023-06-20T23:42:41.273Z,14.60
2023-06-20T23:45:10.232Z,14.40
2023-06-20T23:47:37.312Z,14.05
2023-06-20T23:50:04.565Z,13.65
2023-06-20T23:52:33.551Z,12.63
2023-06-20T23:55:01.835Z,14.23
2023-06-20T23:57:31.803Z,13.93
